createdAt,value
2023-02-21T00:00:00.184Z,581.00
2023-02-21T00:00:30.158Z,579.00
2023-02-21T00:01:00.254Z,579.00
2023-02-21T00:01:30.381Z,579.00
2023-02-21T00:02:00.545Z,578.00
2023-02-21T00:02:30.540Z,579.00
2023-02-21T00:03:00.665Z,579.00
2023-02-21T00:03:30.773Z,579.00
2023-02-21T00:04:00.897Z,579.00
2023-02-21T00:04:31.010Z,579.00
2023-02-21T00:05:01.187Z,577.00
2023-02-21T00:05:31.288Z,577.00
2023-02-21T00:06:01.253Z,577.00
2023-02-21T00:06:31.367Z,578.00
2023-02-21T00:07:01.487Z,578.00
2023-02-21T00:07:31.481Z,577.00
2023-02-21T00:08:01.602Z,575.00
2023-02-21T00:08:31.720Z,576.00
2023-02-21T00:09:01.840Z,576.00
2023-02-21T00:09:31.848Z,578.00
2023-02-21T00:10:01.856Z,578.00
2023-02-21T00:10:31.955Z,576.00
2023-02-21T00:11:01.944Z,577.00
2023-02-21T00:11:32.059Z,576.00
2023-02-21T00:12:02.178Z,575.00
2023-02-21T00:12:32.291Z,575.00
2023-02-21T00:13:02.407Z,574.00
2023-02-21T00:13:32.519Z,575.00
2023-02-21T00:14:02.637Z,573.00
2023-02-21T00:14:32.632Z,574.00
2023-02-21T00:15:02.765Z,574.00
2023-02-21T00:15:32.864Z,577.00
2023-02-21T00:16:02.861Z,579.00
2023-02-21T00:16:32.858Z,577.00
2023-02-21T00:17:02.970Z,578.00
2023-02-21T00:17:32.963Z,579.00
2023-02-21T00:18:02.963Z,579.00
2023-02-21T00:18:33.075Z,578.00
2023-02-21T00:19:03.081Z,578.00
2023-02-21T00:19:33.067Z,577.00
2023-02-21T00:20:03.186Z,576.00
2023-02-21T00:20:33.278Z,577.00
2023-02-21T00:21:03.358Z,579.00
2023-02-21T00:21:33.435Z,579.00
2023-02-21T00:22:03.513Z,578.00
2023-02-21T00:22:33.595Z,579.00
2023-02-21T00:23:03.672Z,577.00
2023-02-21T00:23:33.753Z,577.00
2023-02-21T00:24:03.838Z,576.00
2023-02-21T00:24:33.913Z,575.00
2023-02-21T00:25:04.025Z,576.00
2023-02-21T00:25:34.070Z,578.00
2023-02-21T00:26:04.149Z,578.00
2023-02-21T00:26:34.263Z,578.00
2023-02-21T00:27:04.317Z,578.00
2023-02-21T00:27:34.394Z,579.00
2023-02-21T00:28:04.472Z,580.00
2023-02-21T00:28:34.563Z,579.00
2023-02-21T00:29:04.633Z,577.00
2023-02-21T00:29:34.723Z,577.00
2023-02-21T00:30:04.911Z,575.00
2023-02-21T00:30:35.064Z,574.00
2023-02-21T00:31:04.969Z,574.00
2023-02-21T00:31:34.943Z,574.00
2023-02-21T00:32:04.939Z,575.00
2023-02-21T00:32:35.234Z,576.00
2023-02-21T00:33:07.113Z,575.00
2023-02-21T00:33:35.161Z,575.00
2023-02-21T00:34:05.154Z,573.00
2023-02-21T00:34:35.178Z,571.00
2023-02-21T00:35:05.297Z,572.00
2023-02-21T00:35:35.297Z,573.00
2023-02-21T00:36:05.413Z,573.00
2023-02-21T00:36:35.408Z,573.00
2023-02-21T00:37:05.529Z,573.00
2023-02-21T00:37:35.640Z,573.00
2023-02-21T00:38:05.760Z,575.00
2023-02-21T00:38:35.753Z,574.00
2023-02-21T00:39:05.881Z,574.00
2023-02-21T00:39:35.871Z,574.00
2023-02-21T00:40:06.016Z,574.00
2023-02-21T00:40:36.110Z,575.00
2023-02-21T00:41:06.239Z,576.00
2023-02-21T00:41:36.218Z,577.00
2023-02-21T00:42:06.342Z,577.00
2023-02-21T00:42:36.456Z,577.00
2023-02-21T00:43:06.574Z,577.00
2023-02-21T00:43:36.856Z,577.00
2023-02-21T00:44:06.601Z,576.00
2023-02-21T00:44:36.591Z,575.00
2023-02-21T00:45:06.713Z,574.00
2023-02-21T00:45:36.825Z,574.00
2023-02-21T00:46:07.006Z,572.00
2023-02-21T00:46:37.011Z,572.00
2023-02-21T00:47:07.005Z,572.00
2023-02-21T00:47:37.123Z,572.00
2023-02-21T00:48:07.239Z,573.00
2023-02-21T00:48:37.231Z,573.00
2023-02-21T00:49:07.399Z,572.00
2023-02-21T00:49:37.386Z,570.00
2023-02-21T00:50:07.506Z,570.00
2023-02-21T00:50:37.629Z,571.00
2023-02-21T00:51:07.742Z,573.00
2023-02-21T00:51:37.737Z,572.00
2023-02-21T00:52:07.731Z,572.00
2023-02-21T00:52:37.845Z,571.00
2023-02-21T00:53:07.962Z,571.00
2023-02-21T00:53:37.956Z,572.00
2023-02-21T00:54:08.087Z,570.00
2023-02-21T00:54:38.080Z,571.00
2023-02-21T00:55:08.227Z,572.00
2023-02-21T00:55:38.317Z,572.00
2023-02-21T00:56:08.431Z,573.00
2023-02-21T00:56:38.419Z,572.00
2023-02-21T00:57:08.549Z,572.00
2023-02-21T00:57:38.655Z,573.00
2023-02-21T00:58:08.780Z,573.00
2023-02-21T00:58:38.769Z,572.00
2023-02-21T00:59:08.932Z,570.00
2023-02-21T00:59:38.928Z,572.00
2023-02-21T01:00:08.922Z,573.00
2023-02-21T01:00:39.041Z,573.00
2023-02-21T01:01:09.178Z,573.00
2023-02-21T01:01:39.332Z,572.00
2023-02-21T01:02:09.334Z,573.00
2023-02-21T01:02:39.338Z,573.00
2023-02-21T01:03:09.447Z,572.00
2023-02-21T01:03:39.440Z,570.00
2023-02-21T01:04:09.600Z,570.00
2023-02-21T01:04:39.629Z,571.00
2023-02-21T01:05:09.621Z,571.00
2023-02-21T01:05:39.605Z,572.00
2023-02-21T01:06:09.650Z,571.00
2023-02-21T01:06:39.645Z,570.00
2023-02-21T01:07:09.764Z,570.00
2023-02-21T01:07:39.873Z,570.00
2023-02-21T01:08:09.873Z,570.00
2023-02-21T01:08:39.870Z,571.00
2023-02-21T01:09:09.982Z,572.00
2023-02-21T01:09:39.980Z,572.00
2023-02-21T01:10:10.003Z,571.00
2023-02-21T01:10:39.971Z,572.00
2023-02-21T01:11:09.969Z,570.00
2023-02-21T01:11:39.962Z,567.00
2023-02-21T01:12:10.081Z,566.00
2023-02-21T01:12:40.084Z,565.00
2023-02-21T01:13:10.198Z,565.00
2023-02-21T01:13:40.199Z,565.00
2023-02-21T01:14:10.334Z,564.00
2023-02-21T01:14:40.332Z,564.00
2023-02-21T01:15:10.463Z,563.00
2023-02-21T01:15:40.588Z,562.00
2023-02-21T01:16:10.614Z,563.00
2023-02-21T01:16:40.636Z,562.00
2023-02-21T01:17:13.375Z,562.00
2023-02-21T01:17:40.801Z,561.00
2023-02-21T01:18:10.792Z,562.00
2023-02-21T01:18:40.910Z,562.00
2023-02-21T01:19:10.931Z,561.00
2023-02-21T01:19:40.921Z,561.00
2023-02-21T01:20:11.059Z,561.00
2023-02-21T01:20:41.128Z,562.00
2023-02-21T01:21:11.233Z,563.00
2023-02-21T01:21:41.283Z,561.00
2023-02-21T01:22:11.358Z,562.00
2023-02-21T01:22:41.438Z,562.00
2023-02-21T01:23:11.510Z,562.00
2023-02-21T01:23:41.586Z,561.00
2023-02-21T01:24:11.673Z,560.00
2023-02-21T01:24:41.756Z,561.00
2023-02-21T01:25:11.845Z,561.00
2023-02-21T01:25:41.946Z,561.00
2023-02-21T01:26:11.996Z,563.00
2023-02-21T01:26:42.074Z,563.00
2023-02-21T01:27:12.150Z,563.00
2023-02-21T01:27:42.230Z,562.00
2023-02-21T01:28:12.330Z,561.00
2023-02-21T01:28:42.392Z,562.00
2023-02-21T01:29:12.487Z,562.00
2023-02-21T01:29:42.569Z,563.00
2023-02-21T01:30:12.691Z,563.00
2023-02-21T01:30:42.782Z,564.00
2023-02-21T01:31:13.079Z,565.00
2023-02-21T01:31:42.779Z,565.00
2023-02-21T01:32:12.817Z,565.00
2023-02-21T01:32:42.837Z,564.00
2023-02-21T01:33:12.824Z,564.00
2023-02-21T01:33:42.949Z,565.00
2023-02-21T01:34:12.947Z,566.00
2023-02-21T01:34:43.070Z,565.00
2023-02-21T01:35:13.196Z,564.00
2023-02-21T01:35:43.315Z,563.00
2023-02-21T01:36:13.311Z,562.00
2023-02-21T01:36:43.428Z,562.00
2023-02-21T01:37:13.411Z,559.00
2023-02-21T01:37:43.422Z,558.00
2023-02-21T01:38:13.532Z,558.00
2023-02-21T01:38:43.535Z,558.00
2023-02-21T01:39:13.530Z,558.00
2023-02-21T01:39:43.640Z,558.00
2023-02-21T01:40:13.760Z,558.00
2023-02-21T01:40:43.751Z,558.00
2023-02-21T01:41:14.171Z,556.00
2023-02-21T01:41:43.954Z,559.00
2023-02-21T01:42:14.065Z,558.00
2023-02-21T01:42:46.395Z,558.00
2023-02-21T01:43:14.217Z,556.00
2023-02-21T01:43:44.221Z,557.00
2023-02-21T01:44:14.254Z,559.00
2023-02-21T01:44:44.243Z,559.00
2023-02-21T01:45:14.361Z,560.00
2023-02-21T01:45:44.476Z,561.00
2023-02-21T01:46:14.494Z,563.00
2023-02-21T01:46:44.515Z,562.00
2023-02-21T01:47:14.495Z,560.00
2023-02-21T01:47:44.618Z,558.00
2023-02-21T01:48:14.608Z,557.00
2023-02-21T01:48:44.730Z,559.00
2023-02-21T01:49:14.842Z,557.00
2023-02-21T01:49:44.960Z,558.00
2023-02-21T01:50:14.960Z,559.00
2023-02-21T01:50:44.946Z,559.00
2023-02-21T01:51:15.239Z,559.00
2023-02-21T01:51:45.039Z,560.00
2023-02-21T01:52:15.149Z,561.00
2023-02-21T01:52:45.280Z,563.00
2023-02-21T01:53:15.258Z,563.00
2023-02-21T01:53:45.374Z,562.00
2023-02-21T01:54:15.500Z,561.00
2023-02-21T01:54:45.492Z,560.00
2023-02-21T01:55:15.489Z,560.00
2023-02-21T01:55:45.481Z,561.00
2023-02-21T01:56:15.477Z,560.00
2023-02-21T01:56:45.619Z,558.00
2023-02-21T01:57:15.585Z,558.00
2023-02-21T01:57:45.705Z,559.00
2023-02-21T01:58:15.817Z,560.00
2023-02-21T01:58:45.937Z,560.00
2023-02-21T01:59:15.976Z,559.00
2023-02-21T01:59:45.965Z,557.00
2023-02-21T02:00:16.087Z,558.00
2023-02-21T02:00:46.219Z,561.00
2023-02-21T02:01:16.616Z,559.00
2023-02-21T02:01:46.271Z,559.00
2023-02-21T02:02:16.265Z,559.00
2023-02-21T02:02:46.394Z,559.00
2023-02-21T02:03:16.498Z,558.00
2023-02-21T02:03:46.616Z,559.00
2023-02-21T02:04:16.816Z,559.00
2023-02-21T02:04:46.818Z,560.00
2023-02-21T02:05:16.821Z,561.00
2023-02-21T02:05:46.964Z,562.00
2023-02-21T02:06:16.962Z,563.00
2023-02-21T02:06:47.069Z,563.00
2023-02-21T02:07:17.062Z,563.00
2023-02-21T02:07:47.151Z,564.00
2023-02-21T02:08:17.268Z,564.00
2023-02-21T02:08:47.267Z,564.00
2023-02-21T02:09:17.385Z,564.00
2023-02-21T02:09:47.509Z,564.00
2023-02-21T02:10:17.499Z,566.00
2023-02-21T02:10:47.635Z,566.00
2023-02-21T02:11:17.628Z,568.00
2023-02-21T02:11:47.624Z,567.00
2023-02-21T02:12:17.762Z,565.00
2023-02-21T02:12:47.846Z,566.00
2023-02-21T02:13:17.962Z,566.00
2023-02-21T02:13:48.082Z,565.00
2023-02-21T02:14:18.192Z,565.00
2023-02-21T02:14:48.204Z,564.00
2023-02-21T02:15:18.329Z,563.00
2023-02-21T02:15:48.511Z,562.00
2023-02-21T02:16:18.498Z,564.00
2023-02-21T02:16:48.496Z,566.00
2023-02-21T02:17:18.613Z,566.00
2023-02-21T02:17:48.727Z,566.00
2023-02-21T02:18:18.721Z,565.00
2023-02-21T02:18:48.841Z,565.00
2023-02-21T02:19:18.998Z,564.00
2023-02-21T02:19:49.119Z,565.00
2023-02-21T02:20:18.998Z,564.00
2023-02-21T02:20:49.100Z,563.00
2023-02-21T02:21:19.183Z,565.00
2023-02-21T02:21:49.266Z,565.00
2023-02-21T02:22:19.344Z,566.00
2023-02-21T02:22:49.421Z,565.00
2023-02-21T02:23:19.498Z,567.00
2023-02-21T02:23:49.577Z,566.00
2023-02-21T02:24:19.675Z,566.00
2023-02-21T02:24:49.737Z,564.00
2023-02-21T02:25:19.812Z,563.00
2023-02-21T02:25:49.896Z,562.00
2023-02-21T02:26:19.972Z,564.00
2023-02-21T02:26:50.052Z,563.00
2023-02-21T02:27:20.131Z,564.00
2023-02-21T02:27:50.246Z,564.00
2023-02-21T02:28:20.293Z,563.00
2023-02-21T02:28:50.374Z,563.00
2023-02-21T02:29:20.461Z,562.00
2023-02-21T02:29:50.541Z,562.00
2023-02-21T02:30:20.671Z,561.00
2023-02-21T02:30:50.668Z,561.00
2023-02-21T02:31:20.777Z,561.00
2023-02-21T02:31:50.989Z,560.00
2023-02-21T02:32:20.889Z,562.00
2023-02-21T02:32:51.004Z,561.00
2023-02-21T02:33:21.124Z,563.00
2023-02-21T02:33:51.249Z,564.00
2023-02-21T02:34:21.363Z,565.00
2023-02-21T02:34:51.348Z,564.00
2023-02-21T02:35:21.463Z,565.00
2023-02-21T02:35:51.457Z,567.00
2023-02-21T02:36:21.459Z,566.00
2023-02-21T02:36:51.453Z,565.00
2023-02-21T02:37:21.565Z,567.00
2023-02-21T02:37:51.561Z,567.00
2023-02-21T02:38:21.679Z,566.00
2023-02-21T02:38:51.793Z,565.00
2023-02-21T02:39:21.905Z,563.00
2023-02-21T02:39:51.909Z,565.00
2023-02-21T02:40:22.026Z,562.00
2023-02-21T02:40:52.139Z,561.00
2023-02-21T02:41:22.258Z,563.00
2023-02-21T02:41:52.254Z,563.00
2023-02-21T02:42:22.368Z,563.00
2023-02-21T02:42:52.484Z,563.00
2023-02-21T02:43:22.506Z,563.00
2023-02-21T02:43:52.591Z,564.00
2023-02-21T02:44:22.714Z,566.00
2023-02-21T02:44:52.703Z,565.00
2023-02-21T02:45:22.707Z,565.00
2023-02-21T02:45:52.826Z,565.00
2023-02-21T02:46:22.946Z,566.00
2023-02-21T02:46:53.050Z,567.00
2023-02-21T02:47:23.169Z,568.00
2023-02-21T02:47:53.283Z,567.00
2023-02-21T02:48:23.288Z,566.00
2023-02-21T02:48:53.282Z,567.00
2023-02-21T02:49:23.413Z,567.00
2023-02-21T02:49:53.397Z,566.00
2023-02-21T02:50:23.390Z,564.00
2023-02-21T02:50:53.505Z,565.00
2023-02-21T02:51:23.624Z,565.00
2023-02-21T02:51:53.615Z,566.00
2023-02-21T02:52:23.607Z,565.00
2023-02-21T02:52:53.736Z,564.00
2023-02-21T02:53:23.841Z,563.00
2023-02-21T02:53:53.833Z,562.00
2023-02-21T02:54:23.956Z,560.00
2023-02-21T02:54:53.947Z,560.00
2023-02-21T02:55:23.940Z,560.00
2023-02-21T02:55:54.060Z,559.00
2023-02-21T02:56:24.168Z,560.00
2023-02-21T02:56:54.291Z,560.00
2023-02-21T02:57:24.284Z,561.00
2023-02-21T02:57:54.397Z,562.00
2023-02-21T02:58:24.512Z,563.00
2023-02-21T02:58:54.663Z,563.00
2023-02-21T02:59:24.750Z,565.00
2023-02-21T02:59:54.870Z,564.00
2023-02-21T03:00:24.862Z,562.00
2023-02-21T03:00:54.862Z,561.00
2023-02-21T03:01:24.881Z,558.00
2023-02-21T03:01:54.902Z,558.00
2023-02-21T03:02:24.894Z,559.00
2023-02-21T03:02:55.014Z,560.00
2023-02-21T03:03:25.169Z,559.00
2023-02-21T03:03:55.208Z,559.00
2023-02-21T03:04:25.186Z,557.00
2023-02-21T03:04:55.306Z,556.00
2023-02-21T03:05:25.301Z,556.00
2023-02-21T03:05:55.293Z,557.00
2023-02-21T03:06:25.408Z,558.00
2023-02-21T03:06:55.539Z,559.00
2023-02-21T03:07:25.519Z,558.00
2023-02-21T03:07:55.633Z,560.00
2023-02-21T03:08:25.753Z,561.00
2023-02-21T03:08:55.869Z,562.00
2023-02-21T03:09:25.910Z,562.00
2023-02-21T03:09:55.898Z,563.00
2023-02-21T03:10:25.917Z,562.00
2023-02-21T03:10:56.032Z,562.00
2023-02-21T03:11:26.150Z,562.00
2023-02-21T03:11:56.272Z,563.00
2023-02-21T03:12:26.265Z,564.00
2023-02-21T03:12:56.384Z,566.00
2023-02-21T03:13:26.494Z,566.00
2023-02-21T03:13:56.491Z,565.00
2023-02-21T03:14:26.634Z,566.00
2023-02-21T03:14:56.721Z,567.00
2023-02-21T03:15:26.839Z,567.00
2023-02-21T03:15:56.992Z,565.00
2023-02-21T03:16:26.946Z,564.00
2023-02-21T03:16:57.072Z,563.00
2023-02-21T03:17:27.062Z,562.00
2023-02-21T03:17:57.188Z,561.00
2023-02-21T03:18:27.292Z,562.00
2023-02-21T03:18:57.412Z,562.00
2023-02-21T03:19:27.406Z,562.00
2023-02-21T03:19:57.523Z,560.00
2023-02-21T03:20:27.630Z,560.00
2023-02-21T03:20:57.708Z,562.00
2023-02-21T03:21:27.781Z,562.00
2023-02-21T03:21:57.867Z,562.00
2023-02-21T03:22:27.945Z,563.00
2023-02-21T03:22:58.027Z,562.00
2023-02-21T03:23:28.099Z,561.00
2023-02-21T03:23:58.179Z,561.00
2023-02-21T03:24:28.264Z,562.00
2023-02-21T03:24:58.336Z,562.00
2023-02-21T03:25:28.420Z,561.00
2023-02-21T03:25:58.495Z,560.00
2023-02-21T03:26:28.576Z,561.00
2023-02-21T03:26:58.651Z,562.00
2023-02-21T03:27:28.732Z,563.00
2023-02-21T03:27:58.819Z,562.00
2023-02-21T03:28:28.891Z,561.00
2023-02-21T03:28:58.970Z,561.00
2023-02-21T03:29:29.060Z,561.00
2023-02-21T03:29:59.156Z,560.00
2023-02-21T03:30:29.345Z,558.00
2023-02-21T03:30:59.393Z,558.00
2023-02-21T03:31:29.450Z,557.00
2023-02-21T03:31:59.457Z,556.00
2023-02-21T03:32:29.438Z,556.00
2023-02-21T03:32:59.554Z,555.00
2023-02-21T03:33:29.668Z,554.00
2023-02-21T03:33:59.669Z,554.00
2023-02-21T03:34:29.782Z,554.00
2023-02-21T03:34:59.896Z,555.00
2023-02-21T03:35:30.026Z,554.00
2023-02-21T03:36:00.134Z,553.00
2023-02-21T03:36:30.244Z,554.00
2023-02-21T03:37:00.362Z,554.00
2023-02-21T03:37:30.356Z,554.00
2023-02-21T03:38:00.472Z,552.00
2023-02-21T03:38:30.586Z,552.00
2023-02-21T03:39:00.705Z,550.00
2023-02-21T03:39:30.833Z,551.00
2023-02-21T03:40:00.938Z,553.00
2023-02-21T03:40:31.047Z,553.00
2023-02-21T03:41:01.055Z,554.00
2023-02-21T03:41:31.159Z,556.00
2023-02-21T03:42:01.275Z,557.00
2023-02-21T03:42:31.393Z,557.00
2023-02-21T03:43:01.512Z,556.00
2023-02-21T03:43:31.630Z,556.00
2023-02-21T03:44:01.740Z,557.00
2023-02-21T03:44:31.863Z,556.00
2023-02-21T03:45:02.007Z,555.00
2023-02-21T03:45:31.981Z,555.00
2023-02-21T03:46:01.970Z,554.00
2023-02-21T03:46:32.179Z,553.00
2023-02-21T03:47:02.103Z,554.00
2023-02-21T03:47:32.096Z,553.00
2023-02-21T03:48:02.214Z,554.00
2023-02-21T03:48:32.947Z,555.00
2023-02-21T03:49:02.351Z,556.00
2023-02-21T03:49:32.475Z,554.00
2023-02-21T03:50:02.614Z,555.00
2023-02-21T03:50:32.705Z,554.00
2023-02-21T03:51:02.705Z,555.00
2023-02-21T03:51:32.695Z,555.00
2023-02-21T03:52:02.688Z,555.00
2023-02-21T03:52:32.807Z,556.00
2023-02-21T03:53:02.852Z,556.00
2023-02-21T03:53:32.821Z,555.00
2023-02-21T03:54:02.942Z,558.00
2023-02-21T03:54:32.937Z,559.00
2023-02-21T03:55:02.956Z,559.00
2023-02-21T03:55:33.040Z,559.00
2023-02-21T03:56:03.155Z,558.00
2023-02-21T03:56:41.572Z,559.00
2023-02-21T03:57:03.294Z,559.00
2023-02-21T03:57:33.411Z,559.00
2023-02-21T03:58:03.403Z,558.00
2023-02-21T03:58:33.520Z,559.00
2023-02-21T03:59:03.685Z,559.00
2023-02-21T03:59:33.697Z,559.00
2023-02-21T04:00:03.715Z,556.00
2023-02-21T04:00:33.852Z,557.00
2023-02-21T04:01:03.995Z,555.00
2023-02-21T04:01:33.971Z,555.00
2023-02-21T04:02:04.095Z,555.00
2023-02-21T04:02:34.207Z,556.00
2023-02-21T04:03:04.201Z,557.00
2023-02-21T04:03:34.332Z,559.00
2023-02-21T04:04:04.315Z,560.00
2023-02-21T04:04:34.312Z,560.00
2023-02-21T04:05:04.308Z,558.00
2023-02-21T04:05:34.441Z,558.00
2023-02-21T04:06:04.416Z,558.00
2023-02-21T04:06:34.410Z,559.00
2023-02-21T04:07:04.549Z,558.00
2023-02-21T04:07:34.529Z,558.00
2023-02-21T04:08:04.528Z,559.00
2023-02-21T04:08:34.640Z,560.00
2023-02-21T04:09:04.632Z,559.00
2023-02-21T04:09:34.652Z,558.00
2023-02-21T04:10:04.743Z,559.00
2023-02-21T04:10:38.200Z,561.00
2023-02-21T04:11:04.876Z,561.00
2023-02-21T04:11:35.012Z,563.00
2023-02-21T04:12:05.114Z,565.00
2023-02-21T04:12:35.239Z,563.00
2023-02-21T04:13:05.228Z,562.00
2023-02-21T04:13:35.348Z,562.00
2023-02-21T04:14:05.348Z,562.00
2023-02-21T04:14:35.338Z,562.00
2023-02-21T04:15:05.460Z,562.00
2023-02-21T04:15:35.570Z,563.00
2023-02-21T04:16:05.663Z,563.00
2023-02-21T04:16:35.726Z,563.00
2023-02-21T04:17:05.762Z,563.00
2023-02-21T04:17:35.886Z,562.00
2023-02-21T04:18:05.910Z,562.00
2023-02-21T04:18:37.757Z,564.00
2023-02-21T04:19:06.073Z,564.00
2023-02-21T04:19:36.078Z,563.00
2023-02-21T04:20:06.205Z,563.00
2023-02-21T04:20:36.188Z,564.00
2023-02-21T04:21:06.184Z,565.00
2023-02-21T04:21:36.297Z,564.00
2023-02-21T04:22:06.302Z,563.00
2023-02-21T04:22:36.294Z,563.00
2023-02-21T04:23:06.284Z,562.00
2023-02-21T04:23:36.404Z,561.00
2023-02-21T04:24:06.401Z,560.00
2023-02-21T04:24:36.408Z,560.00
2023-02-21T04:25:06.397Z,563.00
2023-02-21T04:25:36.515Z,561.00
2023-02-21T04:26:06.637Z,560.00
2023-02-21T04:26:36.645Z,560.00
2023-02-21T04:27:06.623Z,560.00
2023-02-21T04:27:36.744Z,559.00
2023-02-21T04:28:06.746Z,559.00
2023-02-21T04:28:36.854Z,560.00
2023-02-21T04:29:06.970Z,559.00
2023-02-21T04:29:37.092Z,560.00
2023-02-21T04:30:07.131Z,560.00
2023-02-21T04:30:37.254Z,560.00
2023-02-21T04:31:07.164Z,558.00
2023-02-21T04:31:37.348Z,557.00
2023-02-21T04:32:07.335Z,556.00
2023-02-21T04:32:37.272Z,555.00
2023-02-21T04:33:07.287Z,555.00
2023-02-21T04:33:37.320Z,556.00
2023-02-21T04:34:12.047Z,556.00
2023-02-21T04:34:37.398Z,556.00
2023-02-21T04:35:07.429Z,555.00
2023-02-21T04:35:37.463Z,555.00
2023-02-21T04:36:07.491Z,555.00
2023-02-21T04:36:37.529Z,555.00
2023-02-21T04:37:07.554Z,556.00
2023-02-21T04:37:37.605Z,555.00
2023-02-21T04:38:07.631Z,555.00
2023-02-21T04:38:37.679Z,556.00
2023-02-21T04:39:07.722Z,557.00
2023-02-21T04:39:37.724Z,556.00
2023-02-21T04:40:07.752Z,555.00
2023-02-21T04:40:37.785Z,555.00
2023-02-21T04:41:07.816Z,556.00
2023-02-21T04:41:37.851Z,555.00
2023-02-21T04:42:07.883Z,555.00
2023-02-21T04:42:37.921Z,555.00
2023-02-21T04:43:07.951Z,554.00
2023-02-21T04:43:37.989Z,555.00
2023-02-21T04:44:08.012Z,556.00
2023-02-21T04:44:38.046Z,555.00
2023-02-21T04:45:08.076Z,556.00
2023-02-21T04:45:38.120Z,558.00
2023-02-21T04:46:08.174Z,558.00
2023-02-21T04:46:38.227Z,556.00
2023-02-21T04:47:08.283Z,556.00
2023-02-21T04:47:38.291Z,556.00
2023-02-21T04:48:08.326Z,557.00
2023-02-21T04:48:38.359Z,554.00
2023-02-21T04:49:08.389Z,554.00
2023-02-21T04:49:38.427Z,553.00
2023-02-21T04:50:08.458Z,555.00
2023-02-21T04:50:38.501Z,555.00
2023-02-21T04:51:15.484Z,556.00
2023-02-21T04:51:38.578Z,556.00
2023-02-21T04:52:08.622Z,554.00
2023-02-21T04:52:38.655Z,555.00
2023-02-21T04:53:08.689Z,556.00
2023-02-21T04:53:38.724Z,556.00
2023-02-21T04:54:08.767Z,555.00
2023-02-21T04:54:38.793Z,556.00
2023-02-21T04:55:08.818Z,556.00
2023-02-21T04:55:38.852Z,555.00
2023-02-21T04:56:08.885Z,556.00
2023-02-21T04:56:38.930Z,556.00
2023-02-21T04:57:08.945Z,556.00
2023-02-21T04:57:38.985Z,557.00
2023-02-21T04:58:09.023Z,556.00
2023-02-21T04:58:45.264Z,556.00
2023-02-21T04:59:09.102Z,555.00
2023-02-21T04:59:39.137Z,556.00
2023-02-21T05:00:09.166Z,558.00
2023-02-21T05:00:39.201Z,558.00
2023-02-21T05:01:09.271Z,558.00
2023-02-21T05:01:39.293Z,558.00
2023-02-21T05:02:09.317Z,559.00
2023-02-21T05:02:39.372Z,560.00
2023-02-21T05:03:09.386Z,559.00
2023-02-21T05:03:39.429Z,557.00
2023-02-21T05:04:09.483Z,558.00
2023-02-21T05:04:39.462Z,558.00
2023-02-21T05:05:09.511Z,559.00
2023-02-21T05:05:39.531Z,560.00
2023-02-21T05:06:09.562Z,561.00
2023-02-21T05:06:39.602Z,559.00
2023-02-21T05:07:09.626Z,560.00
2023-02-21T05:07:39.655Z,561.00
2023-02-21T05:08:09.694Z,562.00
2023-02-21T05:08:39.726Z,562.00
2023-02-21T05:09:09.786Z,561.00
2023-02-21T05:09:39.792Z,561.00
2023-02-21T05:10:09.823Z,560.00
2023-02-21T05:10:45.450Z,561.00
2023-02-21T05:11:09.900Z,562.00
2023-02-21T05:11:39.931Z,564.00
2023-02-21T05:12:09.961Z,565.00
2023-02-21T05:12:40.066Z,566.00
2023-02-21T05:13:10.079Z,567.00
2023-02-21T05:13:40.117Z,568.00
2023-02-21T05:14:10.145Z,570.00
2023-02-21T05:14:40.187Z,571.00
2023-02-21T05:15:10.215Z,572.00
2023-02-21T05:15:40.244Z,573.00
2023-02-21T05:16:10.307Z,575.00
2023-02-21T05:16:40.403Z,576.00
2023-02-21T05:17:10.347Z,577.00
2023-02-21T05:17:40.409Z,577.00
2023-02-21T05:18:10.473Z,578.00
2023-02-21T05:18:40.476Z,578.00
2023-02-21T05:19:10.508Z,578.00
2023-02-21T05:19:40.540Z,578.00
2023-02-21T05:20:10.573Z,579.00
2023-02-21T05:20:40.568Z,579.00
2023-02-21T05:21:10.685Z,578.00
2023-02-21T05:21:40.680Z,580.00
2023-02-21T05:22:10.696Z,582.00
2023-02-21T05:22:40.792Z,583.00
2023-02-21T05:23:13.847Z,583.00
2023-02-21T05:23:41.178Z,585.00
2023-02-21T05:24:11.039Z,586.00
2023-02-21T05:24:41.039Z,588.00
2023-02-21T05:25:11.043Z,588.00
2023-02-21T05:25:41.156Z,589.00
2023-02-21T05:26:11.272Z,590.00
2023-02-21T05:26:41.391Z,592.00
2023-02-21T05:27:11.508Z,594.00
2023-02-21T05:27:41.521Z,594.00
2023-02-21T05:28:11.513Z,594.00
2023-02-21T05:28:41.630Z,594.00
2023-02-21T05:29:11.737Z,596.00
2023-02-21T05:29:41.735Z,597.00
2023-02-21T05:30:11.768Z,597.00
2023-02-21T05:30:41.917Z,598.00
2023-02-21T05:31:11.901Z,596.00
2023-02-21T05:31:41.915Z,596.00
2023-02-21T05:32:11.992Z,594.00
2023-02-21T05:32:42.021Z,593.00
2023-02-21T05:33:12.057Z,592.00
2023-02-21T05:33:42.108Z,591.00
2023-02-21T05:34:12.111Z,592.00
2023-02-21T05:34:42.179Z,594.00
2023-02-21T05:35:12.178Z,594.00
2023-02-21T05:35:42.211Z,594.00
2023-02-21T05:36:12.237Z,592.00
2023-02-21T05:36:42.296Z,593.00
2023-02-21T05:37:12.299Z,594.00
2023-02-21T05:37:42.332Z,595.00
2023-02-21T05:38:12.367Z,595.00
2023-02-21T05:38:42.395Z,594.00
2023-02-21T05:39:12.471Z,593.00
2023-02-21T05:39:42.486Z,592.00
2023-02-21T05:40:12.516Z,592.00
2023-02-21T05:40:42.546Z,593.00
2023-02-21T05:41:12.941Z,594.00
2023-02-21T05:41:42.576Z,595.00
2023-02-21T05:42:12.610Z,596.00
2023-02-21T05:42:42.638Z,596.00
2023-02-21T05:43:12.678Z,596.00
2023-02-21T05:43:42.706Z,595.00
2023-02-21T05:44:12.732Z,597.00
2023-02-21T05:44:42.772Z,597.00
2023-02-21T05:45:12.812Z,596.00
2023-02-21T05:45:42.895Z,597.00
2023-02-21T05:46:12.948Z,599.00
2023-02-21T05:46:43.005Z,599.00
2023-02-21T05:47:13.033Z,598.00
2023-02-21T05:47:43.073Z,599.00
2023-02-21T05:48:13.134Z,599.00
2023-02-21T05:48:43.144Z,599.00
2023-02-21T05:49:13.207Z,599.00
2023-02-21T05:49:43.237Z,598.00
2023-02-21T05:50:13.268Z,600.00
2023-02-21T05:50:43.297Z,602.00
2023-02-21T05:51:13.718Z,603.00
2023-02-21T05:51:43.357Z,601.00
2023-02-21T05:52:13.405Z,601.00
2023-02-21T05:52:43.427Z,601.00
2023-02-21T05:53:13.458Z,600.00
2023-02-21T05:53:43.497Z,601.00
2023-02-21T05:54:13.544Z,601.00
2023-02-21T05:54:43.569Z,603.00
2023-02-21T05:55:13.606Z,606.00
2023-02-21T05:55:43.647Z,606.00
2023-02-21T05:56:13.724Z,607.00
2023-02-21T05:56:43.732Z,607.00
2023-02-21T05:57:13.765Z,608.00
2023-02-21T05:57:43.789Z,609.00
2023-02-21T05:58:13.839Z,610.00
2023-02-21T05:58:43.861Z,611.00
2023-02-21T05:59:13.918Z,612.00
2023-02-21T05:59:43.949Z,612.00
2023-02-21T06:00:13.988Z,613.00
2023-02-21T06:00:44.018Z,614.00
2023-02-21T06:01:14.719Z,614.00
2023-02-21T06:01:44.153Z,613.00
2023-02-21T06:02:14.204Z,613.00
2023-02-21T06:02:44.211Z,613.00
2023-02-21T06:03:14.294Z,615.00
2023-02-21T06:03:44.414Z,615.00
2023-02-21T06:04:14.358Z,615.00
2023-02-21T06:04:44.422Z,616.00
2023-02-21T06:05:14.435Z,617.00
2023-02-21T06:05:44.471Z,617.00
2023-02-21T06:06:14.513Z,617.00
2023-02-21T06:06:44.548Z,618.00
2023-02-21T06:07:14.571Z,618.00
2023-02-21T06:07:44.606Z,617.00
2023-02-21T06:08:14.642Z,617.00
2023-02-21T06:08:44.691Z,619.00
2023-02-21T06:09:14.723Z,620.00
2023-02-21T06:09:44.756Z,620.00
2023-02-21T06:10:14.793Z,620.00
2023-02-21T06:10:44.817Z,620.00
2023-02-21T06:11:15.204Z,620.00
2023-02-21T06:11:44.927Z,620.00
2023-02-21T06:12:14.964Z,620.00
2023-02-21T06:12:45.018Z,620.00
2023-02-21T06:13:15.024Z,619.00
2023-02-21T06:13:45.075Z,620.00
2023-02-21T06:14:15.136Z,621.00
2023-02-21T06:14:45.149Z,621.00